Time,TemperatureF,DewpointF,PressureIn,WindDirection,WindDirectionDegrees,WindSpeedMPH,WindSpeedGustMPH,Humidity,HourlyPrecipIn,Conditions,Clouds,dailyrainin,SolarRadiationWatts/m^2,SoftwareType,DateUTC
2013-04-10 00:07:00,65.2,60.0,30.12,East,100,0.0,0.0,82,0.00,,,0.00,0,weatherlink.com 1.10,2013-04-10 04:07:00,
2013-04-10 00:22:00,65.0,60.0,30.12,East,99,0.0,0.0,83,0.00,,,0.00,0,weatherlink.com 1.10,2013-04-10 04:22:00,
2013-04-10 00:37:00,64.8,60.0,30.11,East,100,0.0,0.0,83,0.00,,,0.00,0,weatherlink.com 1.10,2013-04-10 04:37:00,
2013-04-10 00:52:00,64.6,60.0,30.11,East,99,0.0,1.0,84,0.00,,,0.00,0,weatherlink.com 1.10,2013-04-10 04:52:00,
2013-04-10 01:07:00,64.4,60.0,30.10,East,99,0.0,0.0,85,0.00,,,0.00,0,weatherlink.com 1.10,2013-04-10 05:07:00,
2013-04-10 01:22:00,64.3,60.0,30.10,East,99,0.0,1.0,86,0.00,,,0.00,0,weatherlink.com 1.10,2013-04-10 05:22:00,
2013-04-10 01:37:00,64.1,60.0,30.09,East,100,0.0,1.0,86,0.00,,,0.00,0,weatherlink.com 1.10,2013-04-10 05:37:00,
2013-04-10 01:52:00,64.0,60.0,30.09,East,99,0.0,0.0,87,0.00,,,0.00,0,weatherlink.com 1.10,2013-04-10 05:52:00,
2013-04-10 02:07:00,63.9,60.0,30.09,East,100,0.0,0.0,88,0.00,,,0.00,0,weatherlink.com 1.10,2013-04-10 06:07:00,
2013-04-10 02:22:00,63.9,60.0,30.08,East,100,0.0,1.0,88,0.00,,,0.00,0,weatherlink.com 1.10,2013-04-10 06:22:00,
2013-04-10 02:37:00,63.8,61.0,30.07,East,99,0.0,0.0,89,0.00,,,0.00,0,weatherlink.com 1.10,2013-04-10 06:37:00,
2013-04-10 02:53:00,63.6,60.0,30.06,East,100,0.0,0.0,89,0.00,,,0.00,0,weatherlink.com 1.10,2013-04-10 06:53:00,
2013-04-10 03:08:00,63.6,60.0,30.06,East,99,0.0,1.0,89,0.00,,,0.00,0,weatherlink.com 1.10,2013-04-10 07:08:00,
2013-04-10 03:23:00,63.3,60.0,30.06,East,99,0.0,0.0,90,0.00,,,0.00,0,weatherlink.com 1.10,2013-04-10 07:23:00,
2013-04-10 03:38:00,63.1,60.0,30.06,East,100,0.0,0.0,90,0.00,,,0.00,0,weatherlink.com 1.10,2013-04-10 07:38:00,
2013-04-10 03:53:00,63.0,60.0,30.06,East,99,0.0,0.0,90,0.00,,,0.00,0,weatherlink.com 1.10,2013-04-10 07:53:00,
2013-04-10 04:08:00,62.7,60.0,30.06,East,99,0.0,0.0,90,0.00,,,0.00,0,weatherlink.com 1.10,2013-04-10 08:08:00,
2013-04-10 04:38:00,62.1,60.0,30.06,East,99,0.0,0.0,91,0.00,,,0.00,0,weatherlink.com 1.10,2013-04-10 08:38:00,
2013-04-10 04:53:00,61.8,59.0,30.06,East,99,0.0,0.0,91,0.00,,,0.00,0,weatherlink.com 1.10,2013-04-10 08:53:00,
2013-04-10 05:08:00,61.6,59.0,30.07,East,99,0.0,0.0,91,0.00,,,0.00,0,weatherlink.com 1.10,2013-04-10 09:08:00,
2013-04-10 05:23:00,61.5,59.0,30.06,East,100,0.0,0.0,91,0.00,,,0.00,0,weatherlink.com 1.10,2013-04-10 09:23:00,
2013-04-10 05:38:00,61.3,59.0,30.05,East,100,0.0,0.0,91,0.00,,,0.00,0,weatherlink.com 1.10,2013-04-10 09:38:00,
2013-04-10 05:53:00,61.4,59.0,30.06,East,100,0.0,0.0,92,0.00,,,0.00,0,weatherlink.com 1.10,2013-04-10 09:53:00,
2013-04-10 06:08:00,61.6,59.0,30.06,East,100,0.0,1.0,92,0.00,,,0.00,0,weatherlink.com 1.10,2013-04-10 10:08:00,
2013-04-10 06:23:00,61.8,60.0,30.06,East,99,0.0,0.0,92,0.00,,,0.00,0,weatherlink.com 1.10,2013-04-10 10:23:00,
2013-04-10 06:38:00,61.8,60.0,30.06,East,99,0.0,0.0,93,0.00,,,0.00,0,weatherlink.com 1.10,2013-04-10 10:38:00,
2013-04-10 06:53:00,61.9,60.0,30.06,East,99,0.0,0.0,93,0.00,,,0.00,0,weatherlink.com 1.10,2013-04-10 10:53:00,
2013-04-10 07:08:00,61.8,60.0,30.06,East,101,0.0,0.0,93,0.00,,,0.00,5,weatherlink.com 1.10,2013-04-10 11:08:00,
2013-04-10 07:23:00,61.4,59.0,30.06,East,100,0.0,0.0,92,0.00,,,0.00,14,weatherlink.com 1.10,2013-04-10 11:23:00,
2013-04-10 07:38:00,61.7,60.0,30.06,East,99,0.0,0.0,93,0.00,,,0.00,35,weatherlink.com 1.10,2013-04-10 11:38:00,
2013-04-10 08:08:00,63.8,62.0,30.07,East,99,0.0,0.0,94,0.00,,,0.00,148,weatherlink.com 1.10,2013-04-10 12:08:00,
2013-04-10 08:23:00,65.5,64.0,30.07,East,99,0.0,1.0,94,0.00,,,0.00,206,weatherlink.com 1.10,2013-04-10 12:23:00,
2013-04-10 08:38:00,67.4,66.0,30.07,ESE,116,0.0,1.0,94,0.00,,,0.00,264,weatherlink.com 1.10,2013-04-10 12:38:00,
2013-04-10 08:53:00,69.2,67.0,30.07,ESE,116,0.0,2.0,91,0.00,,,0.00,316,weatherlink.com 1.10,2013-04-10 12:53:00,
2013-04-10 09:08:00,71.1,67.0,30.07,SE,144,0.0,3.0,87,0.00,,,0.00,378,weatherlink.com 1.10,2013-04-10 13:08:00,
2013-04-10 09:23:00,72.3,67.0,30.07,SSE,152,0.0,8.0,83,0.00,,,0.00,436,weatherlink.com 1.10,2013-04-10 13:23:00,
2013-04-10 09:38:00,73.6,67.0,30.07,South,183,4.0,7.0,80,0.00,,,0.00,490,weatherlink.com 1.10,2013-04-10 13:38:00,
2013-04-10 09:53:00,74.7,66.0,30.08,South,173,1.0,9.0,75,0.00,,,0.00,221,weatherlink.com 1.10,2013-04-10 13:53:00,
2013-04-10 10:09:00,75.2,66.0,30.08,SSE,149,3.0,9.0,74,0.00,,,0.00,151,weatherlink.com 1.10,2013-04-10 14:09:00,
2013-04-10 10:24:00,74.9,67.0,30.09,South,173,10.0,13.0,75,0.00,,,0.00,142,weatherlink.com 1.10,2013-04-10 14:24:00,
2013-04-10 10:39:00,77.2,66.0,30.08,South,175,6.0,11.0,69,0.00,,,0.00,751,weatherlink.com 1.10,2013-04-10 14:39:00,
2013-04-10 10:54:00,78.4,66.0,30.08,SSE,163,9.0,11.0,66,0.00,,,0.00,838,weatherlink.com 1.10,2013-04-10 14:54:00,
2013-04-10 11:09:00,78.4,66.0,30.07,SE,140,3.0,8.0,66,0.00,,,0.00,861,weatherlink.com 1.10,2013-04-10 15:09:00,
2013-04-10 11:24:00,79.9,66.0,30.07,South,171,6.0,10.0,62,0.00,,,0.00,946,weatherlink.com 1.10,2013-04-10 15:24:00,
2013-04-10 11:39:00,79.8,65.0,30.07,SSE,152,3.0,9.0,61,0.00,,,0.00,988,weatherlink.com 1.10,2013-04-10 15:39:00,
2013-04-10 11:54:00,81.2,64.0,30.07,SE,145,2.0,8.0,57,0.00,,,0.00,984,weatherlink.com 1.10,2013-04-10 15:54:00,
2013-04-10 12:09:00,81.5,64.0,30.07,SSE,158,1.0,11.0,56,0.00,,,0.00,991,weatherlink.com 1.10,2013-04-10 16:09:00,
2013-04-10 12:24:00,81.3,64.0,30.07,SSE,147,2.0,10.0,55,0.00,,,0.00,237,weatherlink.com 1.10,2013-04-10 16:24:00,
2013-04-10 12:39:00,81.5,63.0,30.06,SSE,159,4.0,11.0,54,0.00,,,0.00,1035,weatherlink.com 1.10,2013-04-10 16:39:00,
2013-04-10 12:54:00,82.6,64.0,30.05,East,98,1.0,7.0,53,0.00,,,0.00,1046,weatherlink.com 1.10,2013-04-10 16:54:00,
2013-04-10 13:09:00,83.6,62.0,30.05,SE,138,1.0,9.0,49,0.00,,,0.00,237,weatherlink.com 1.10,2013-04-10 17:09:00,
2013-04-10 13:24:00,84.4,61.0,30.04,South,184,2.0,7.0,46,0.00,,,0.00,1016,weatherlink.com 1.10,2013-04-10 17:24:00,
2013-04-10 13:39:00,85.4,62.0,30.04,SSW,207,3.0,8.0,46,0.00,,,0.00,234,weatherlink.com 1.10,2013-04-10 17:39:00,
2013-04-10 14:09:00,85.9,62.0,30.03,South,169,4.0,11.0,44,0.00,,,0.00,308,weatherlink.com 1.10,2013-04-10 18:09:00,
2013-04-10 14:24:00,84.2,62.0,30.03,East,82,5.0,5.0,47,0.00,,,0.00,248,weatherlink.com 1.10,2013-04-10 18:24:00,
2013-04-10 14:39:00,84.7,62.0,30.02,South,188,3.0,7.0,46,0.00,,,0.00,1007,weatherlink.com 1.10,2013-04-10 18:39:00,
2013-04-10 14:54:00,87.0,61.0,30.02,SSW,195,0.0,10.0,41,0.00,,,0.00,1081,weatherlink.com 1.10,2013-04-10 18:54:00,
2013-04-10 15:09:00,86.3,62.0,30.02,SE,143,0.0,11.0,44,0.00,,,0.00,274,weatherlink.com 1.10,2013-04-10 19:09:00,
2013-04-10 15:24:00,85.2,62.0,30.01,SSE,165,1.0,8.0,45,0.00,,,0.00,227,weatherlink.com 1.10,2013-04-10 19:24:00,
2013-04-10 15:39:00,84.4,63.0,30.01,SSE,165,4.0,14.0,48,0.00,,,0.00,248,weatherlink.com 1.10,2013-04-10 19:39:00,
2013-04-10 15:54:00,85.1,63.0,30.00,East,86,2.0,5.0,48,0.00,,,0.00,338,weatherlink.com 1.10,2013-04-10 19:54:00,
2013-04-10 16:09:00,86.0,63.0,29.99,SSW,203,5.0,8.0,47,0.00,,,0.00,809,weatherlink.com 1.10,2013-04-10 20:09:00,
2013-04-10 16:24:00,86.3,66.0,29.98,SE,138,3.0,12.0,51,0.00,,,0.00,782,weatherlink.com 1.10,2013-04-10 20:24:00,
2013-04-10 16:39:00,85.4,66.0,29.98,ESE,113,5.0,10.0,53,0.00,,,0.00,654,weatherlink.com 1.10,2013-04-10 20:39:00,
2013-04-10 16:54:00,85.5,66.0,29.98,SSE,164,4.0,8.0,52,0.00,,,0.00,585,weatherlink.com 1.10,2013-04-10 20:54:00,
2013-04-10 17:09:00,85.2,66.0,29.98,SSE,156,2.0,11.0,53,0.00,,,0.00,526,weatherlink.com 1.10,2013-04-10 21:09:00,
2013-04-10 17:24:00,85.5,66.0,29.98,SSE,159,3.0,8.0,53,0.00,,,0.00,478,weatherlink.com 1.10,2013-04-10 21:24:00,
2013-04-10 17:39:00,84.3,66.0,29.97,SSE,150,9.0,11.0,54,0.00,,,0.00,378,weatherlink.com 1.10,2013-04-10 21:39:00,
2013-04-10 17:54:00,83.6,67.0,29.98,SE,135,10.0,10.0,58,0.00,,,0.00,334,weatherlink.com 1.10,2013-04-10 21:54:00,
2013-04-10 18:10:00,82.4,68.0,29.98,SE,144,3.0,9.0,61,0.00,,,0.00,199,weatherlink.com 1.10,2013-04-10 22:10:00,
2013-04-10 18:25:00,81.2,67.0,29.98,SE,133,2.0,10.0,63,0.00,,,0.00,77,weatherlink.com 1.10,2013-04-10 22:25:00,
2013-04-10 18:40:00,80.3,68.0,29.98,East,86,2.0,9.0,66,0.00,,,0.00,72,weatherlink.com 1.10,2013-04-10 22:40:00,
2013-04-10 18:55:00,80.1,68.0,29.97,ESE,114,4.0,7.0,67,0.00,,,0.00,47,weatherlink.com 1.10,2013-04-10 22:55:00,
2013-04-10 19:10:00,79.2,68.0,29.98,ESE,114,0.0,8.0,68,0.00,,,0.00,33,weatherlink.com 1.10,2013-04-10 23:10:00,
2013-04-10 19:25:00,78.5,68.0,29.98,ENE,71,2.0,11.0,71,0.00,,,0.00,18,weatherlink.com 1.10,2013-04-10 23:25:00,
2013-04-10 19:40:00,77.7,68.0,29.98,East,84,3.0,9.0,73,0.00,,,0.00,14,weatherlink.com 1.10,2013-04-10 23:40:00,
2013-04-10 19:55:00,76.9,68.0,29.98,SSE,165,3.0,10.0,75,0.00,,,0.00,0,weatherlink.com 1.10,2013-04-10 23:55:00,
2013-04-10 20:10:00,76.3,69.0,29.98,East,101,6.0,9.0,77,0.00,,,0.00,0,weatherlink.com 1.10,2013-04-11 00:10:00,
2013-04-10 20:25:00,75.7,69.0,29.98,East,91,3.0,9.0,79,0.00,,,0.00,0,weatherlink.com 1.10,2013-04-11 00:25:00,
2013-04-10 20:40:00,75.3,69.0,29.98,SE,134,4.0,7.0,80,0.00,,,0.00,0,weatherlink.com 1.10,2013-04-11 00:40:00,
2013-04-10 20:55:00,75.1,69.0,29.99,SSE,159,0.0,7.0,80,0.00,,,0.00,0,weatherlink.com 1.10,2013-04-11 00:55:00,
2013-04-10 21:10:00,74.8,69.0,30.00,SSE,147,0.0,11.0,81,0.00,,,0.00,0,weatherlink.com 1.10,2013-04-11 01:10:00,
2013-04-10 21:25:00,74.5,69.0,29.99,ESE,113,0.0,5.0,82,0.00,,,0.00,0,weatherlink.com 1.10,2013-04-11 01:25:00,
2013-04-10 21:40:00,74.2,69.0,30.00,ESE,121,1.0,5.0,83,0.00,,,0.00,0,weatherlink.com 1.10,2013-04-11 01:40:00,
2013-04-10 21:55:00,74.0,69.0,30.00,SE,133,3.0,6.0,84,0.00,,,0.00,0,weatherlink.com 1.10,2013-04-11 01:55:00,
2013-04-10 22:10:00,73.7,69.0,30.00,SE,142,4.0,5.0,84,0.00,,,0.00,0,weatherlink.com 1.10,2013-04-11 02:10:00,
2013-04-10 22:25:00,73.5,69.0,30.01,SE,125,0.0,5.0,85,0.00,,,0.00,0,weatherlink.com 1.10,2013-04-11 02:25:00,
2013-04-10 22:40:00,73.3,69.0,30.00,East,99,1.0,6.0,86,0.00,,,0.00,0,weatherlink.com 1.10,2013-04-11 02:40:00,
2013-04-10 22:55:00,73.1,69.0,30.00,East,89,0.0,7.0,86,0.00,,,0.00,0,weatherlink.com 1.10,2013-04-11 02:55:00,
2013-04-10 23:10:00,72.8,69.0,29.99,SE,134,0.0,4.0,87,0.00,,,0.00,0,weatherlink.com 1.10,2013-04-11 03:10:00,
2013-04-10 23:40:00,72.6,69.0,30.00,SE,139,2.0,8.0,88,0.00,,,0.00,0,weatherlink.com 1.10,2013-04-11 03:40:00,
2013-04-10 23:55:00,72.6,69.0,29.99,ESE,104,3.0,7.0,89,0.00,,,0.00,0,weatherlink.com 1.10,2013-04-11 03:55:00,